Terminal Aerodrome Forecast
Issued by NWS Des Moines, IA

Home | Current Version | Previous Version | Text Only | Print | Product List | Glossary On
Versions: 1 2 3 4 5 6 7 8 9 10 11 12 13 14 15 16 17 18 19 20
000
FTUS43 KDMX 241416 AAA
TAFDSM
TAF AMD
KDSM 241416Z 2414/2512 21010KT 2SM TSRA VCSH BKN026CB OVC040
     FM241600 15010KT P6SM VCTS SCT015 OVC025CB
     FM241900 28010KT P6SM BKN030
     FM242100 33013KT P6SM BKN100
     FM250100 35009KT P6SM SCT120
     FM250700 30007KT P6SM SKC=

USA.gov is the U.S. government's official web portal to all federal, state and local government web resources and services.